createdAt,value
2023-01-23T00:03:11.423Z,-151.49998
2023-01-23T00:08:12.466Z,-151.49206
2023-01-23T00:13:13.396Z,-151.46161
2023-01-23T00:18:14.304Z,-151.79716
2023-01-23T00:23:15.225Z,-151.79887
2023-01-23T00:28:16.187Z,-151.70333
2023-01-23T00:33:17.110Z,-151.57294
2023-01-23T00:38:18.104Z,-151.29382
2023-01-23T00:43:19.071Z,-152.21151
2023-01-23T00:48:20.041Z,-152.28652
2023-01-23T00:53:21.117Z,-152.46937
2023-01-23T00:58:22.108Z,-152.39299
2023-01-23T01:03:23.024Z,-152.96407
2023-01-23T01:08:23.955Z,-153.28918
2023-01-23T01:13:24.880Z,-153.97901
2023-01-23T01:18:25.995Z,-153.97109
2023-01-23T01:23:27.011Z,-154.01809
2023-01-23T01:28:28.008Z,-154.36233
2023-01-23T01:33:28.938Z,-155.15501
2023-01-23T01:38:29.857Z,-155.29787
2023-01-23T01:43:30.830Z,-155.85605
2023-01-23T01:48:31.865Z,-156.52661
2023-01-23T01:53:32.778Z,-156.80377
2023-01-23T01:58:33.711Z,-156.66976
2023-01-23T02:03:34.717Z,-156.40297
2023-01-23T02:08:35.655Z,-156.54587
2023-01-23T02:13:36.594Z,-156.69981
2023-01-23T02:18:37.539Z,-156.51088
2023-01-23T02:23:38.663Z,-156.00881
2023-01-23T02:28:39.656Z,-156.03314
2023-01-23T02:33:40.564Z,-156.50576
2023-01-23T02:38:41.471Z,-156.71282
2023-01-23T02:43:42.385Z,-157.51892
2023-01-23T02:48:43.331Z,-157.88352
2023-01-23T02:53:44.232Z,-158.30005
2023-01-23T02:58:45.213Z,-159.01562
2023-01-23T03:03:46.138Z,-159.64938
2023-01-23T03:08:47.051Z,-159.57944
2023-01-23T03:13:47.976Z,-159.73597
2023-01-23T03:18:54.170Z,-159.98419
2023-01-23T03:23:55.352Z,-160.06756
2023-01-23T03:28:56.415Z,-160.34423
2023-01-23T03:33:57.718Z,-160.34939
2023-01-23T03:38:58.917Z,-161.02439
2023-01-23T03:43:59.849Z,-162.02844
2023-01-23T03:49:00.761Z,-162.17525
2023-01-23T03:54:01.773Z,-162.42413
2023-01-23T03:59:02.669Z,-162.88361
2023-01-23T04:04:03.605Z,-163.60528
2023-01-23T04:09:04.501Z,-163.13474
2023-01-23T04:14:05.449Z,-163.45783
2023-01-23T04:19:06.352Z,-164.03525
2023-01-23T04:24:07.282Z,-164.26834
2023-01-23T04:29:08.250Z,-164.57177
2023-01-23T04:34:09.171Z,-163.76581
2023-01-23T04:39:10.115Z,-164.13892
2023-01-23T04:44:11.015Z,-164.51097
2023-01-23T04:49:11.931Z,-165.08486
2023-01-23T04:54:12.843Z,-165.48922
2023-01-23T04:59:13.735Z,-165.64707
2023-01-23T05:04:14.663Z,-166.19321
2023-01-23T05:09:15.573Z,-165.81213
2023-01-23T05:14:16.503Z,-165.44533
2023-01-23T05:19:17.423Z,-165.15087
2023-01-23T05:24:18.360Z,-165.31888
2023-01-23T05:29:19.350Z,-164.7618
2023-01-23T05:34:20.395Z,-164.82235
2023-01-23T05:39:21.300Z,-165.36208
2023-01-23T05:44:22.335Z,-165.28536
2023-01-23T05:49:23.268Z,-165.62872
2023-01-23T05:54:24.209Z,-166.7819
2023-01-23T05:59:25.104Z,-167.01386
2023-01-23T06:04:26.068Z,-167.74761
2023-01-23T06:09:26.998Z,-168.49214
2023-01-23T06:14:27.935Z,-168.49666
2023-01-23T06:19:28.837Z,-169.34827
2023-01-23T06:24:29.750Z,-169.60536
2023-01-23T06:29:30.868Z,-169.37136
2023-01-23T06:34:31.805Z,-169.68627
2023-01-23T06:39:32.770Z,-170.03364
2023-01-23T06:44:33.853Z,-170.73706
2023-01-23T06:49:34.788Z,-171.7119
2023-01-23T06:54:35.729Z,-171.8736
2023-01-23T06:59:36.632Z,-171.42131
2023-01-23T07:04:37.581Z,-171.26948
2023-01-23T07:09:38.576Z,-171.65978
2023-01-23T07:14:39.506Z,-171.65266
2023-01-23T07:19:40.441Z,-172.41984
2023-01-23T07:24:41.413Z,-172.83548
2023-01-23T07:29:42.410Z,-172.73329
2023-01-23T07:34:43.357Z,-173.19812
2023-01-23T07:39:44.287Z,-172.92304
2023-01-23T07:44:45.253Z,-172.60014
2023-01-23T07:49:46.230Z,-172.90393
2023-01-23T07:54:47.212Z,-173.20876
2023-01-23T07:59:48.129Z,-173.00975
2023-01-23T08:04:49.048Z,-173.42105
2023-01-23T08:09:50.030Z,-173.32072
2023-01-23T08:14:50.950Z,-173.96322
2023-01-23T08:19:51.837Z,-173.98282
2023-01-23T08:24:52.756Z,-174.74468
2023-01-23T08:29:53.708Z,-175.46132
2023-01-23T08:34:54.663Z,-175.80131
2023-01-23T08:39:55.554Z,-176.53198
2023-01-23T08:44:56.803Z,-177.66119
2023-01-23T08:49:58.143Z,-177.98423
2023-01-23T08:54:59.361Z,-178.07311
2023-01-23T09:00:00.350Z,-178.37773
2023-01-23T09:05:01.564Z,-179.19433
2023-01-23T09:10:02.460Z,-179.77304
2023-01-23T09:15:03.382Z,-181.17767
2023-01-23T09:20:04.294Z,-181.30737
2023-01-23T09:25:05.214Z,-181.30195
2023-01-23T09:30:06.153Z,-181.76215
2023-01-23T09:35:07.089Z,-182.95176
2023-01-23T09:40:08.245Z,-183.00841
2023-01-23T09:45:09.160Z,-182.7695
2023-01-23T09:50:10.071Z,-182.28921
2023-01-23T09:55:11.001Z,-182.71405
2023-01-23T10:00:11.879Z,-183.1602
2023-01-23T10:05:12.813Z,-182.90667
2023-01-23T10:10:13.751Z,-183.15365
2023-01-23T10:15:14.764Z,-183.33962
2023-01-23T10:20:15.757Z,-183.35098
2023-01-23T10:25:16.672Z,-183.6101
2023-01-23T10:30:17.878Z,-183.25927
2023-01-23T10:35:19.373Z,-183.81891
2023-01-23T10:40:20.797Z,-184.3828
2023-01-23T10:45:22.203Z,-184.27468
2023-01-23T10:50:23.322Z,-183.77711
2023-01-23T10:55:24.228Z,-183.49399
2023-01-23T11:00:25.153Z,-183.43172
2023-01-23T11:05:26.302Z,-183.26382
2023-01-23T11:10:27.205Z,-183.46291
2023-01-23T11:15:28.222Z,-183.21893
2023-01-23T11:20:29.188Z,-182.35761
2023-01-23T11:25:30.123Z,-181.89766
2023-01-23T11:30:31.242Z,-181.59678
2023-01-23T11:35:32.204Z,-181.72794
2023-01-23T11:40:33.363Z,-181.61424
2023-01-23T11:45:34.297Z,-181.72892
2023-01-23T11:50:37.158Z,-181.71218
2023-01-23T11:55:41.979Z,-181.45143
2023-01-23T12:00:42.863Z,-181.5278
2023-01-23T12:05:43.836Z,-180.95126
2023-01-23T12:10:44.756Z,-180.50851
2023-01-23T12:15:45.773Z,-179.80898
2023-01-23T12:20:48.361Z,-179.39469
2023-01-23T12:25:49.519Z,-179.37327
2023-01-23T12:30:50.523Z,-179.33932
2023-01-23T12:35:51.434Z,-179.23933
2023-01-23T12:40:52.384Z,-179.06055
2023-01-23T12:45:53.309Z,-178.61845
2023-01-23T12:50:54.249Z,-178.50133
2023-01-23T12:55:55.232Z,-178.2725
2023-01-23T13:00:56.209Z,-178.19086
2023-01-23T13:05:57.481Z,-178.51232
2023-01-23T13:10:58.822Z,-178.83537
2023-01-23T13:15:59.805Z,-179.24194
2023-01-23T13:21:00.727Z,-179.70777
2023-01-23T13:26:01.801Z,-179.70157
2023-01-23T13:31:02.827Z,-179.63265
2023-01-23T13:36:03.980Z,-179.79777
2023-01-23T13:41:04.885Z,-179.88791
2023-01-23T13:46:05.852Z,-179.64363
2023-01-23T14:33:59.008Z,-180.64344
2023-01-23T14:39:02.840Z,-180.85113
2023-01-23T14:44:03.811Z,-181.25661
2023-01-23T14:49:04.722Z,-181.70448
2023-01-23T14:54:10.193Z,-181.21252
2023-01-23T14:59:11.423Z,-181.72148
2023-01-23T15:04:12.393Z,-181.95391
2023-01-23T15:09:13.288Z,-182.549
2023-01-23T15:14:14.259Z,-182.64115
2023-01-23T15:19:15.173Z,-183.2215
2023-01-23T15:24:16.160Z,-183.56532
2023-01-23T15:29:17.105Z,-183.83422
2023-01-23T15:34:18.078Z,-184.06812
2023-01-23T15:39:18.982Z,-183.84427
2023-01-23T15:44:19.930Z,-184.12343
2023-01-23T15:49:25.722Z,-184.36339
2023-01-23T15:54:27.275Z,-184.47092
2023-01-23T15:59:28.212Z,-184.16566
2023-01-23T16:04:29.139Z,-184.59801
2023-01-23T16:09:30.100Z,-185.21175
2023-01-23T16:14:31.016Z,-185.79028
2023-01-23T16:19:31.961Z,-185.80972
2023-01-23T16:24:32.967Z,-185.71213
2023-01-23T16:29:33.915Z,-185.91872
2023-01-23T16:34:35.242Z,-185.89839
2023-01-23T16:39:36.400Z,-186.25808
2023-01-23T16:44:37.357Z,-186.97047
2023-01-23T16:49:51.502Z,-187.09668
2023-01-23T16:54:53.468Z,-186.76293
2023-01-23T16:59:54.700Z,-186.53903
2023-01-23T17:04:55.743Z,-186.93089
2023-01-23T17:09:56.763Z,-186.96295
2023-01-23T17:14:58.087Z,-187.49543
2023-01-23T17:19:59.369Z,-187.85135
2023-01-23T17:25:00.344Z,-188.16251
2023-01-23T17:30:01.371Z,-188.68236
2023-01-23T17:35:03.197Z,-188.69775
2023-01-23T17:40:04.313Z,-188.18121
2023-01-23T17:45:05.287Z,-188.30825
2023-01-23T17:50:06.230Z,-188.46368
2023-01-23T17:55:07.165Z,-188.8285
2023-01-23T18:00:08.155Z,-188.9786
2023-01-23T18:05:09.058Z,-188.75306
2023-01-23T18:10:09.970Z,-188.56757
2023-01-23T18:15:10.906Z,-188.6129
2023-01-23T18:20:11.856Z,-188.39855
2023-01-23T18:25:12.802Z,-188.42315
2023-01-23T18:30:13.758Z,-188.48958
2023-01-23T18:35:14.819Z,-188.66853
2023-01-23T18:40:17.439Z,-188.97941
2023-01-23T18:45:26.985Z,-188.95709
2023-01-23T18:50:28.669Z,-188.833
2023-01-23T18:55:29.613Z,-188.76767
2023-01-23T19:00:30.546Z,-188.8207
2023-01-23T19:05:31.529Z,-188.77216
2023-01-23T19:10:40.142Z,-188.48397
2023-01-23T19:15:53.304Z,-187.99605
2023-01-23T19:20:54.260Z,-188.42886
2023-01-23T19:25:55.314Z,-188.55156
2023-01-23T19:30:56.241Z,-188.53006
2023-01-23T19:35:57.265Z,-189.14636
2023-01-23T19:40:58.602Z,-189.16043
2023-01-23T19:45:59.554Z,-189.48639
2023-01-23T19:51:00.496Z,-189.52322
2023-01-23T19:56:01.468Z,-190.07656
2023-01-23T20:01:02.468Z,-190.48875
2023-01-23T20:06:03.662Z,-191.28225
2023-01-23T20:11:04.597Z,-191.08619
2023-01-23T20:16:05.528Z,-190.83363
2023-01-23T20:21:06.413Z,-190.73191
2023-01-23T20:26:07.341Z,-190.70166
2023-01-23T20:31:08.327Z,-191.29618
2023-01-23T20:36:09.393Z,-191.63445
2023-01-23T20:41:10.357Z,-191.83956
2023-01-23T20:46:11.371Z,-192.16285
2023-01-23T20:51:12.306Z,-192.48338
2023-01-23T20:56:13.228Z,-192.09023
2023-01-23T21:01:14.153Z,-192.62865
2023-01-23T21:06:15.096Z,-192.98986
2023-01-23T21:11:15.999Z,-193.52307
2023-01-23T21:16:17.117Z,-194.48799
2023-01-23T21:21:18.128Z,-194.6609
2023-01-23T21:26:19.052Z,-194.23593
2023-01-23T21:31:20.183Z,-194.14516
2023-01-23T21:36:21.186Z,-194.02307
2023-01-23T21:41:27.405Z,-193.74382
2023-01-23T21:46:28.444Z,-194.06535
2023-01-23T21:51:29.382Z,-193.87903
2023-01-23T21:56:30.346Z,-194.17277
2023-01-23T22:01:31.393Z,-194.12662
2023-01-23T22:06:32.351Z,-193.58447
2023-01-23T22:11:33.313Z,-193.17381
2023-01-23T22:16:48.120Z,-192.76108
2023-01-23T22:21:50.232Z,-192.77708
2023-01-23T22:26:51.161Z,-193.21509
2023-01-23T22:31:52.332Z,-193.61177
2023-01-23T22:36:53.472Z,-193.81959
2023-01-23T22:41:54.457Z,-194.15481
2023-01-23T22:46:55.421Z,-194.63847
2023-01-23T22:51:56.568Z,-194.75517
2023-01-23T22:56:57.726Z,-194.24943
2023-01-23T23:01:59.251Z,-193.8007
2023-01-23T23:07:00.625Z,-194.07951
2023-01-23T23:12:01.538Z,-194.73309
2023-01-23T23:17:02.451Z,-194.68769
2023-01-23T23:22:03.390Z,-193.96419
2023-01-23T23:27:04.302Z,-193.78742
2023-01-23T23:32:05.360Z,-193.19289
2023-01-23T23:37:06.386Z,-192.75214
2023-01-23T23:42:07.422Z,-192.03668
2023-01-23T23:47:08.377Z,-191.783
2023-01-23T23:52:09.430Z,-191.60553
2023-01-23T23:57:10.349Z,-191.99393
